MSY weather

Louis Armstrong New Orleans International Airport
New Orleans, Louisiana, United States

Public forecast

Using degrees Fahrenheit for public forecast. Weather courtesy of forecast.io.

Current aviation weather report (METAR) for Louis Armstrong New Orleans International Airport

Retrieved 2020/02/16 20:53 UTC (35 minutes ago):

KMSY 162053Z 05007KT 10SM OVC007 16/13 A3000 RMK AO2 SLP162 T01610128 56020

Aviation forecast (TAF) for Louis Armstrong New Orleans International Airport

Retrieved 2020/02/16 18:42 UTC (3 hours ago):

TAF KMSY 161739Z 1618/1724 05009KT P6SM FEW005 BKN020 FM170700 00000KT 5SM BR BKN003 FM171000 00000KT 2SM BR OVC008 TEMPO 1710/1714 1/4SM FG OVC003 FM171400 VRB04KT 1SM BR OVC003 FM171700 14006KT P6SM OVC008